Falcon — WBE7134 — position and weather

sailwx.info

Track history (hours):
 
Tides and Currents Weather Stations Pressure Air Temp Water Temp Dewpoint Dewpoint Depression Visibility Wind Speed Wind Dir Waves Ship Positions

Falcon

Owner: Allied Transportation Company, NORFOLK, VA. More information available from US FCC via Universal Licensing System and Coast Guard Vessel Documentation Center.

Last reported at 2016-Feb-11 19:27 UTC. Time now 2016-Feb-13 04:41 UTC.
Position N 27°06' W 079°60'.

Length 37 m; draft 5 m.

Type: Tug. MMSI: 366976720.

Date/timePositionNaut miles runAvg speedWind from/ knotsBaromVisibWave heightAir tempDewpointWater temp
2016-Feb-11 19:27N 27°06' W 079°60'6 6.2
2016-Feb-11 18:33N 26°60' W 079°59'6 6.2
2016-Feb-11 17:33N 26°54' W 079°59'  
2016-Feb-09 01:33N 26°49' W 080°01'6 6.6
2016-Feb-09 00:33N 26°56' W 080°02'4 4.2
2016-Feb-08 23:33N 26°58' W 079°58'7 7.1
2016-Feb-08 22:33N 26°51' W 079°58'10 7.1
2016-Feb-08 21:12N 26°42' W 079°57'5 7.4
2016-Feb-08 20:33N 26°37' W 079°57'7 6.6
2016-Feb-08 19:33N 26°30' W 079°55'4 3.7
2016-Feb-08 18:33N 26°34' W 079°55'4 4.2
2016-Feb-08 17:33N 26°38' W 079°56'10 4.9
2016-Feb-08 15:33N 26°47' W 079°60'8 7.9
2016-Feb-08 14:33N 26°55' W 080°01'  
2016-Feb-05 21:33N 34°37' W 077°03'9 8.6
2016-Feb-05 20:33N 34°38' W 076°53'8 8.5
2016-Feb-05 19:33N 34°35' W 076°43'8 8.3
2016-Feb-05 18:33N 34°31' W 076°35'8 7.8
2016-Feb-05 17:32N 34°26' W 076°26'9 8.8
2016-Feb-05 16:33N 34°35' W 076°23'7 7.3
2016-Feb-05 15:34N 34°42' W 076°23'5 5.2
2016-Feb-05 14:33N 34°46' W 076°19'4 3.8
2016-Feb-05 13:29N 34°42' W 076°17'240 5.7
2016-Feb-03 19:12N 38°29' W 074°41'8 7.8
2016-Feb-03 18:09N 38°37' W 074°39'54 8.0
2016-Feb-03 11:24N 39°27' W 074°11'7 8.5
2016-Feb-03 10:33N 39°33' W 074°06'9 8.6
2016-Feb-03 09:33N 39°41' W 074°01'9 8.5
2016-Feb-03 08:33N 39°49' W 073°57'9 8.5
2016-Feb-03 07:33N 39°57' W 073°56'21 8.5
2016-Feb-03 05:08N 40°18' W 073°54'12 7.6
2016-Feb-03 03:33N 40°30' W 073°56'8 7.6
2016-Feb-03 02:33N 40°36' W 074°02'9 8.8
2016-Feb-03 01:33N 40°44' W 074°01'  
Track history (hours):
 
Tides and Currents Weather Stations Pressure Air Temp Water Temp Dewpoint Dewpoint Depression Visibility Wind Speed Wind Dir Waves Ship Positions

Falcon

Owner: Allied Transportation Company, NORFOLK, VA. More information available from US FCC via Universal Licensing System and Coast Guard Vessel Documentation Center.

Last reported at 2016-Feb-11 19:27 UTC. Time now 2016-Feb-13 04:41 UTC.
Position N 27°06' W 079°60'.

Length 37 m; draft 5 m.

Type: Tug. MMSI: 366976720.

Date/timePositionNaut miles runAvg speedWind from/ knotsBaromVisibWave heightAir tempDewpointWater temp
2016-Feb-11 19:27N 27°06' W 079°60'6 6.2
2016-Feb-11 18:33N 26°60' W 079°59'6 6.2
2016-Feb-11 17:33N 26°54' W 079°59'  
2016-Feb-09 01:33N 26°49' W 080°01'6 6.6
2016-Feb-09 00:33N 26°56' W 080°02'4 4.2
2016-Feb-08 23:33N 26°58' W 079°58'7 7.1
2016-Feb-08 22:33N 26°51' W 079°58'10 7.1
2016-Feb-08 21:12N 26°42' W 079°57'5 7.4
2016-Feb-08 20:33N 26°37' W 079°57'7 6.6
2016-Feb-08 19:33N 26°30' W 079°55'4 3.7
2016-Feb-08 18:33N 26°34' W 079°55'4 4.2
2016-Feb-08 17:33N 26°38' W 079°56'10 4.9
2016-Feb-08 15:33N 26°47' W 079°60'8 7.9
2016-Feb-08 14:33N 26°55' W 080°01'  
2016-Feb-05 21:33N 34°37' W 077°03'9 8.6
2016-Feb-05 20:33N 34°38' W 076°53'8 8.5
2016-Feb-05 19:33N 34°35' W 076°43'8 8.3
2016-Feb-05 18:33N 34°31' W 076°35'8 7.8
2016-Feb-05 17:32N 34°26' W 076°26'9 8.8
2016-Feb-05 16:33N 34°35' W 076°23'7 7.3
2016-Feb-05 15:34N 34°42' W 076°23'5 5.2
2016-Feb-05 14:33N 34°46' W 076°19'4 3.8
2016-Feb-05 13:29N 34°42' W 076°17'240 5.7
2016-Feb-03 19:12N 38°29' W 074°41'8 7.8
2016-Feb-03 18:09N 38°37' W 074°39'54 8.0
2016-Feb-03 11:24N 39°27' W 074°11'7 8.5
2016-Feb-03 10:33N 39°33' W 074°06'9 8.6
2016-Feb-03 09:33N 39°41' W 074°01'9 8.5
2016-Feb-03 08:33N 39°49' W 073°57'9 8.5
2016-Feb-03 07:33N 39°57' W 073°56'21 8.5
2016-Feb-03 05:08N 40°18' W 073°54'12 7.6
2016-Feb-03 03:33N 40°30' W 073°56'8 7.6
2016-Feb-03 02:33N 40°36' W 074°02'9 8.8
2016-Feb-03 01:33N 40°44' W 074°01'  

Dump ship's entire track history